Tanica\sunbeam — OUVD2 — position and weather

sailwx.info

Track history (hours):
 
Tides and Currents Weather Stations Pressure Air Temp Water Temp Dewpoint Dewpoint Depression Visibility Wind Speed Wind Dir Waves Ship Positions

Tanica\sunbeam

Last reported at 2018-Jun-10 03:24 UTC. Time now 2018-Jun-19 20:08 UTC.
Position N 25°29' W 079°48'.
Warning: this ship's position is 9 days out of date.

Length 66 m; draft 4.5 m.

Type: Cargo ship. MMSI: 219208000.

Date/timePositionNaut miles runAvg speedWind from/ knotsBaromVisibWave heightAir tempDewpointWater temp
2018-Jun-10 03:24N 25°29' W 079°48'2 5.5
2018-Jun-10 03:00N 25°30' W 079°49'3 5.5
2018-Jun-10 02:30N 25°32' W 079°51'3 5.1
2018-Jun-10 02:00N 25°34' W 079°53'3 5.3
2018-Jun-10 01:30N 25°36' W 079°56'3 5.7
2018-Jun-10 01:00N 25°38' W 079°58'3 6.4
2018-Jun-10 00:30N 25°40' W 080°00'3 6.9
2018-Jun-10 00:00N 25°43' W 080°02'4 7.4
2018-Jun-09 23:31N 25°46' W 080°05'4 7.2
2018-Jun-09 23:00N 25°46' W 080°09'2 4.8
2018-Jun-09 22:30N 25°46' W 080°12'1 2.8
2018-Jun-09 22:00N 25°47' W 080°13'2 3.2
2018-Jun-09 21:31N 25°48' W 080°14'1 1.8
2018-Jun-09 20:58N 25°48' W 080°15'0 0.0
2018-Jun-09 20:28N 25°48' W 080°15'0 0.0
2018-Jun-09 19:58N 25°48' W 080°15'0 0.0
2018-Jun-09 19:28N 25°48' W 080°15'0 0.0
2018-Jun-09 18:58N 25°48' W 080°15'0 0.0
2018-Jun-09 18:28N 25°48' W 080°15'0 0.0
2018-Jun-09 17:58N 25°48' W 080°15'0 0.0
2018-Jun-09 17:28N 25°48' W 080°15'0 0.0
2018-Jun-09 16:58N 25°48' W 080°15'0 0.0
2018-Jun-09 16:28N 25°48' W 080°15'0 0.0
2018-Jun-09 15:58N 25°48' W 080°15'0 0.0
2018-Jun-09 15:28N 25°48' W 080°15'0 0.0
2018-Jun-09 14:28N 25°48' W 080°15'0 0.0
2018-Jun-09 13:57N 25°48' W 080°15'0 0.0
2018-Jun-09 13:30N 25°48' W 080°15'0 0.0
2018-Jun-09 12:57N 25°48' W 080°15'0 0.0
2018-Jun-09 12:27N 25°48' W 080°15'0 0.0
2018-Jun-09 11:57N 25°48' W 080°15'0 0.0
2018-Jun-09 11:30N 25°48' W 080°15'0 0.0
2018-Jun-09 11:00N 25°48' W 080°15'0 0.0
2018-Jun-09 10:30N 25°48' W 080°15'0 0.0
2018-Jun-09 10:00N 25°48' W 080°15'0 0.0
2018-Jun-09 09:30N 25°48' W 080°15'0 0.0
2018-Jun-09 09:00N 25°48' W 080°15'0 0.0
2018-Jun-09 08:30N 25°48' W 080°15'0 0.0
2018-Jun-09 08:00N 25°48' W 080°15'0 0.0
2018-Jun-09 07:30N 25°48' W 080°15'0 0.0
2018-Jun-09 06:57N 25°48' W 080°15'0 0.0
2018-Jun-09 06:24N 25°48' W 080°15'0 0.0
2018-Jun-09 05:57N 25°48' W 080°15'0 0.0
2018-Jun-09 05:27N 25°48' W 080°15'0 0.0
2018-Jun-09 04:57N 25°48' W 080°15'0 0.0
2018-Jun-09 04:27N 25°48' W 080°15'0 0.0
2018-Jun-09 04:00N 25°48' W 080°15'0 0.0
2018-Jun-09 03:27N 25°48' W 080°15'0 0.0
2018-Jun-09 03:00N 25°48' W 080°15'0 0.0
2018-Jun-09 02:30N 25°48' W 080°15'0 0.0
2018-Jun-09 02:00N 25°48' W 080°15'0 0.0
2018-Jun-09 01:30N 25°48' W 080°15'0 0.0
2018-Jun-09 01:00N 25°48' W 080°15'0 0.0
2018-Jun-09 00:29N 25°48' W 080°15'0 0.0
2018-Jun-08 23:56N 25°48' W 080°15'0 0.0
2018-Jun-08 23:29N 25°48' W 080°15'0 0.0
2018-Jun-08 22:59N 25°48' W 080°15'0 0.0
2018-Jun-08 22:29N 25°48' W 080°15'0 0.0
2018-Jun-08 21:59N 25°48' W 080°15'0 0.0
2018-Jun-08 21:29N 25°48' W 080°15'0 0.0
2018-Jun-08 20:59N 25°48' W 080°15'0 0.0
2018-Jun-08 20:29N 25°48' W 080°15'0 0.0
2018-Jun-08 19:59N 25°48' W 080°15'0 0.0
2018-Jun-08 19:29N 25°48' W 080°15'0 0.0
2018-Jun-08 18:59N 25°48' W 080°15'0 0.0
2018-Jun-08 18:26N 25°48' W 080°15'0 0.0
2018-Jun-08 17:59N 25°48' W 080°15'0 0.0
2018-Jun-08 17:29N 25°48' W 080°15'0 0.0
2018-Jun-08 16:59N 25°48' W 080°15'0 0.0
2018-Jun-08 16:29N 25°48' W 080°15'0 0.0
2018-Jun-08 15:59N 25°48' W 080°15'0 0.0
2018-Jun-08 15:29N 25°48' W 080°15'0 0.0
2018-Jun-08 14:59N 25°48' W 080°15'0 0.0
2018-Jun-08 14:29N 25°48' W 080°15'0 0.0
2018-Jun-08 13:59N 25°48' W 080°15'0 0.0
2018-Jun-08 13:29N 25°48' W 080°15'0 0.0
2018-Jun-08 12:59N 25°48' W 080°15'0 0.0
2018-Jun-08 12:29N 25°48' W 080°15'0 0.0
2018-Jun-08 11:59N 25°48' W 080°15'0 0.0
2018-Jun-08 11:29N 25°48' W 080°15'0 0.0
2018-Jun-08 10:59N 25°48' W 080°15'0 0.0
2018-Jun-08 10:29N 25°48' W 080°15'0 0.0
2018-Jun-08 09:59N 25°48' W 080°15'0 0.0
2018-Jun-08 09:23N 25°48' W 080°15'0 0.0
2018-Jun-08 08:56N 25°48' W 080°15'0 0.0
2018-Jun-08 08:29N 25°48' W 080°15'0 0.0
2018-Jun-08 07:59N 25°48' W 080°15'0 0.0
2018-Jun-08 07:20N 25°48' W 080°15'0 0.0
2018-Jun-08 06:56N 25°48' W 080°15'0 0.0
2018-Jun-08 06:29N 25°48' W 080°15'0 0.0
2018-Jun-08 05:59N 25°48' W 080°15'0 0.0
2018-Jun-08 05:29N 25°48' W 080°15'0 0.0
2018-Jun-08 04:59N 25°48' W 080°15'0 0.0
2018-Jun-08 04:29N 25°48' W 080°15'0 0.0
2018-Jun-08 03:58N 25°48' W 080°15'0 0.0
2018-Jun-08 03:28N 25°48' W 080°15'0 0.0
2018-Jun-08 02:58N 25°48' W 080°15'0 0.0
2018-Jun-08 02:28N 25°48' W 080°15'0 0.0
2018-Jun-08 01:58N 25°48' W 080°15'0 0.0
2018-Jun-08 01:28N 25°48' W 080°15'0 0.0
2018-Jun-08 00:58N 25°48' W 080°15'0 0.0
2018-Jun-08 00:28N 25°48' W 080°15'0 0.0
2018-Jun-07 23:58N 25°48' W 080°15'0 0.0
2018-Jun-07 23:28N 25°48' W 080°15'0 0.0
2018-Jun-07 22:58N 25°48' W 080°15'0 0.0
2018-Jun-07 22:28N 25°48' W 080°15'0 0.0
2018-Jun-07 21:58N 25°48' W 080°15'0 0.0
2018-Jun-07 21:28N 25°48' W 080°15'0 0.0
2018-Jun-07 20:58N 25°48' W 080°15'0 0.0
2018-Jun-07 20:28N 25°48' W 080°15'0 0.0
2018-Jun-07 19:58N 25°48' W 080°15'0 0.0
2018-Jun-07 19:25N 25°48' W 080°15'0 0.0
2018-Jun-07 18:58N 25°48' W 080°15'0 0.0
2018-Jun-07 18:28N 25°48' W 080°15'0 0.0
2018-Jun-07 17:58N 25°48' W 080°15'0 0.0
2018-Jun-07 17:25N 25°48' W 080°15'0 0.0
2018-Jun-07 16:58N 25°48' W 080°15'0 0.0
2018-Jun-07 16:25N 25°48' W 080°15'0 0.0
2018-Jun-07 15:55N 25°48' W 080°15'0 0.0
2018-Jun-07 15:19N 25°48' W 080°15'0 0.0
2018-Jun-07 14:52N 25°48' W 080°15'0 0.0
2018-Jun-07 14:30N 25°48' W 080°15'0 0.0
2018-Jun-07 13:58N 25°48' W 080°15'0 0.0
2018-Jun-07 13:31N 25°48' W 080°15'0 0.0
2018-Jun-07 13:01N 25°48' W 080°15'0 0.0
2018-Jun-07 12:31N 25°48' W 080°15'0 0.0
2018-Jun-07 12:00N 25°48' W 080°15'0 0.0
2018-Jun-07 11:30N 25°48' W 080°15'0 0.0
2018-Jun-07 11:00N 25°48' W 080°15'0 0.0
2018-Jun-07 10:30N 25°48' W 080°15'0 0.0
2018-Jun-07 10:00N 25°48' W 080°15'0 0.0
2018-Jun-07 09:30N 25°48' W 080°15'0 0.0
2018-Jun-07 09:00N 25°48' W 080°15'0 0.0
2018-Jun-07 08:30N 25°48' W 080°15'0 0.0
2018-Jun-07 08:00N 25°48' W 080°15'0 0.0
2018-Jun-07 07:30N 25°48' W 080°15'0 0.0
2018-Jun-07 07:00N 25°48' W 080°15'0 0.0
2018-Jun-07 06:30N 25°48' W 080°15'0 0.0
2018-Jun-07 06:00N 25°48' W 080°15'0 0.0
2018-Jun-07 05:30N 25°48' W 080°15'0 0.0
2018-Jun-07 05:00N 25°48' W 080°15'0 0.0
2018-Jun-07 04:30N 25°48' W 080°15'0 0.0
2018-Jun-07 04:00N 25°48' W 080°15'0 0.0
2018-Jun-07 03:30N 25°48' W 080°15'0 0.0
2018-Jun-07 03:00N 25°48' W 080°15'0 0.0
2018-Jun-07 02:30N 25°48' W 080°15'0 0.0
2018-Jun-07 02:00N 25°48' W 080°15'0 0.0
2018-Jun-07 01:30N 25°48' W 080°15'0 0.0
2018-Jun-07 01:00N 25°48' W 080°15'0 0.0
2018-Jun-07 00:30N 25°48' W 080°15'0 0.0
2018-Jun-07 00:00N 25°48' W 080°15'0 0.0
2018-Jun-06 23:30N 25°48' W 080°15'0 0.0
2018-Jun-06 23:00N 25°48' W 080°15'0 0.0
2018-Jun-06 22:30N 25°48' W 080°15'0 0.0
2018-Jun-06 22:00N 25°48' W 080°15'0 0.0
2018-Jun-06 21:30N 25°48' W 080°15'0 0.0
2018-Jun-06 21:00N 25°48' W 080°15'0 0.0
2018-Jun-06 20:30N 25°48' W 080°15'0 0.0
2018-Jun-06 20:00N 25°48' W 080°15'0 0.0
2018-Jun-06 19:30N 25°48' W 080°15'0 0.0
2018-Jun-06 19:00N 25°48' W 080°15'0 0.0
2018-Jun-06 18:24N 25°48' W 080°15'0 0.0
2018-Jun-06 17:59N 25°48' W 080°15'0 0.0
2018-Jun-06 17:26N 25°48' W 080°15'0 0.0
2018-Jun-06 16:59N 25°48' W 080°15'0 0.0
2018-Jun-06 16:29N 25°48' W 080°15'0 0.0
2018-Jun-06 15:58N 25°48' W 080°15'0 0.0
2018-Jun-06 15:28N 25°48' W 080°15'0 0.0
2018-Jun-06 14:58N 25°48' W 080°15'0 0.0
2018-Jun-06 14:28N 25°48' W 080°15'0 0.0
2018-Jun-06 13:58N 25°48' W 080°15'0 0.0
2018-Jun-06 13:28N 25°48' W 080°15'0 0.0
2018-Jun-06 12:58N 25°48' W 080°15'0 0.0
2018-Jun-06 12:28N 25°48' W 080°15'0 0.0
2018-Jun-06 11:58N 25°48' W 080°15'0 0.0
2018-Jun-06 11:28N 25°48' W 080°15'0 0.0
2018-Jun-06 10:58N 25°48' W 080°15'0 0.0
2018-Jun-06 10:28N 25°48' W 080°15'0 0.0
2018-Jun-06 09:58N 25°48' W 080°15'0 0.0
2018-Jun-06 09:28N 25°48' W 080°15'0 0.0
2018-Jun-06 08:55N 25°48' W 080°15'0 0.0
2018-Jun-06 08:30N 25°48' W 080°15'0 0.0
2018-Jun-06 07:57N 25°48' W 080°15'0 0.0
2018-Jun-06 07:27N 25°48' W 080°15'0 0.0
2018-Jun-06 06:54N 25°48' W 080°15'0 0.0
2018-Jun-06 06:27N 25°48' W 080°15'0 0.0
2018-Jun-06 06:00N 25°48' W 080°15'0 0.0
2018-Jun-06 05:27N 25°48' W 080°15'0 0.0
2018-Jun-06 04:54N 25°48' W 080°15'0 0.0
2018-Jun-06 04:27N 25°48' W 080°15'0 0.0
2018-Jun-06 04:00N 25°48' W 080°15'0 0.0
2018-Jun-06 03:30N 25°48' W 080°15'0 0.0
2018-Jun-06 03:00N 25°48' W 080°15'0 0.0
2018-Jun-06 02:30N 25°48' W 080°15'0 0.0
2018-Jun-06 02:00N 25°48' W 080°15'0 0.0
2018-Jun-06 01:30N 25°48' W 080°15'0 0.0
2018-Jun-06 01:00N 25°48' W 080°15'0 0.0
2018-Jun-06 00:30N 25°48' W 080°15'0 0.0
2018-Jun-05 23:54N 25°48' W 080°15'0 0.0
2018-Jun-05 23:30N 25°48' W 080°15'0 0.0
2018-Jun-05 23:00N 25°48' W 080°15'0 0.0
2018-Jun-05 22:30N 25°48' W 080°15'0 0.0
2018-Jun-05 22:00N 25°48' W 080°15'0 0.0
2018-Jun-05 21:30N 25°48' W 080°15'0 0.0
2018-Jun-05 21:00N 25°48' W 080°15'0 0.0
2018-Jun-05 20:27N 25°48' W 080°15'0 0.0
2018-Jun-05 20:00N 25°48' W 080°15'0 0.0
2018-Jun-05 19:24N 25°48' W 080°15'0 0.0
2018-Jun-05 19:00N 25°48' W 080°15'0 0.0
2018-Jun-05 18:30N 25°48' W 080°15'0 0.0
2018-Jun-05 17:57N 25°48' W 080°15'0 0.0
2018-Jun-05 17:24N 25°48' W 080°15'0 0.0
2018-Jun-05 16:57N 25°48' W 080°15'0 0.0
2018-Jun-05 16:24N 25°48' W 080°15'0 0.0
2018-Jun-05 15:57N 25°48' W 080°15'0 0.0
2018-Jun-05 15:30N 25°48' W 080°15'0 0.0
2018-Jun-05 14:56N 25°48' W 080°15'0 0.0
2018-Jun-05 14:29N 25°48' W 080°15'0 0.0
2018-Jun-05 13:59N 25°48' W 080°15'0 0.0
2018-Jun-05 13:26N 25°48' W 080°15'0 0.0
2018-Jun-05 12:59N 25°48' W 080°15'0 0.0
2018-Jun-05 12:29N 25°48' W 080°15'0 0.0
2018-Jun-05 11:56N 25°48' W 080°15'0 0.0
2018-Jun-05 11:29N 25°48' W 080°15'0 0.0
2018-Jun-05 10:59N 25°48' W 080°15'0 0.0
2018-Jun-05 10:26N 25°48' W 080°15'0 0.0
2018-Jun-05 09:59N 25°48' W 080°15'0 0.0
2018-Jun-05 09:26N 25°48' W 080°15'0 0.0
2018-Jun-05 08:56N 25°48' W 080°15'0 0.0
2018-Jun-05 08:29N 25°48' W 080°15'0 0.0
2018-Jun-05 07:59N 25°48' W 080°15'0 0.0
2018-Jun-05 07:26N 25°48' W 080°15'0 0.0
2018-Jun-05 06:59N 25°48' W 080°15'0 0.0
2018-Jun-05 06:29N 25°48' W 080°15'0 0.0
2018-Jun-05 05:56N 25°48' W 080°15'0 0.0
2018-Jun-05 05:29N 25°48' W 080°15'0 0.0
2018-Jun-05 04:59N 25°48' W 080°15'0 0.0
2018-Jun-05 04:29N 25°48' W 080°15'0 0.0
2018-Jun-05 03:59N 25°48' W 080°15'0 0.0
2018-Jun-05 03:29N 25°48' W 080°15'0 0.0
2018-Jun-05 02:59N 25°48' W 080°15'0 0.0
2018-Jun-05 02:26N 25°48' W 080°15'0 0.0
2018-Jun-05 01:59N 25°48' W 080°15'0 0.0
2018-Jun-05 01:29N 25°48' W 080°15'0 0.0
2018-Jun-05 00:56N 25°48' W 080°15'0 0.0
2018-Jun-05 00:26N 25°48' W 080°15'0 0.0
2018-Jun-04 23:59N 25°48' W 080°15'0 0.0
2018-Jun-04 23:29N 25°48' W 080°15'0 0.0
2018-Jun-04 22:56N 25°48' W 080°15'0 0.0
2018-Jun-04 22:26N 25°48' W 080°15'0 0.0
2018-Jun-04 21:59N 25°48' W 080°15'0 0.0
2018-Jun-04 21:26N 25°48' W 080°15'0 0.0
2018-Jun-04 20:58N 25°48' W 080°15'0 0.0
2018-Jun-04 20:28N 25°48' W 080°15'0 0.0
2018-Jun-04 19:58N 25°48' W 080°15'0 0.0
2018-Jun-04 19:28N 25°48' W 080°15'0 0.0
2018-Jun-04 18:58N 25°48' W 080°15'0 0.0
2018-Jun-04 18:28N 25°48' W 080°15'0 0.0
2018-Jun-04 17:58N 25°48' W 080°15'0 0.0
2018-Jun-04 17:25N 25°48' W 080°15'0 0.0
2018-Jun-04 16:58N 25°48' W 080°15'0 0.0
2018-Jun-04 16:25N 25°48' W 080°15'0 0.0
2018-Jun-04 15:58N 25°48' W 080°15'0 0.0
2018-Jun-04 15:28N 25°48' W 080°15'0 0.0
2018-Jun-04 14:58N 25°48' W 080°15'0 0.0
2018-Jun-04 14:30N 25°48' W 080°15'0 0.0
2018-Jun-04 14:00N 25°48' W 080°15'0 0.0
2018-Jun-04 13:30N 25°48' W 080°15'0 0.0
2018-Jun-04 13:00N 25°48' W 080°15'0 0.0
2018-Jun-04 12:30N 25°48' W 080°15'0 0.0
2018-Jun-04 12:00N 25°48' W 080°15'0 0.0
2018-Jun-04 11:30N 25°48' W 080°15'0 0.0
2018-Jun-04 11:00N 25°48' W 080°15'0 0.0
2018-Jun-04 10:27N 25°48' W 080°15'0 0.0
2018-Jun-04 10:00N 25°48' W 080°15'0 0.0
2018-Jun-04 09:30N 25°48' W 080°15'0 0.0
2018-Jun-04 09:00N 25°48' W 080°15'0 0.0
2018-Jun-04 08:30N 25°48' W 080°15'0 0.0
2018-Jun-04 08:00N 25°48' W 080°15'0 0.0
2018-Jun-04 07:30N 25°48' W 080°15'0 0.0
2018-Jun-04 07:00N 25°48' W 080°15'0 0.0
2018-Jun-04 06:30N 25°48' W 080°15'0 0.0
2018-Jun-04 06:00N 25°48' W 080°15'0 0.0
2018-Jun-04 05:30N 25°48' W 080°15'0 0.0
2018-Jun-04 05:00N 25°48' W 080°15'0 0.0
2018-Jun-04 04:30N 25°48' W 080°15'0 0.0
2018-Jun-04 04:00N 25°48' W 080°15'0 0.0
2018-Jun-04 03:30N 25°48' W 080°15'0 0.0
2018-Jun-04 03:00N 25°48' W 080°15'0 0.0
2018-Jun-04 02:30N 25°48' W 080°15'0 0.0
2018-Jun-04 02:00N 25°48' W 080°15'0 0.0
2018-Jun-04 01:30N 25°48' W 080°15'0 0.0
2018-Jun-04 01:00N 25°48' W 080°15'0 0.0
2018-Jun-04 00:30N 25°48' W 080°15'0 0.0
2018-Jun-03 23:59N 25°48' W 080°15'0 0.0
2018-Jun-03 23:29N 25°48' W 080°15'0 0.0
2018-Jun-03 22:59N 25°48' W 080°15'0 0.0
2018-Jun-03 22:29N 25°48' W 080°15'0 0.0
2018-Jun-03 21:59N 25°48' W 080°15'0 0.0
2018-Jun-03 21:29N 25°48' W 080°15'0 0.0
2018-Jun-03 20:59N 25°48' W 080°15'0 0.0
2018-Jun-03 20:29N 25°48' W 080°15'0 0.0
2018-Jun-03 19:59N 25°48' W 080°15'0 0.0
2018-Jun-03 19:29N 25°48' W 080°15'0 0.0
2018-Jun-03 18:59N 25°48' W 080°15'0 0.0
2018-Jun-03 18:29N 25°48' W 080°15'0 0.0
2018-Jun-03 17:59N 25°48' W 080°15'0 0.0
2018-Jun-03 17:29N 25°48' W 080°15'0 0.0
2018-Jun-03 16:59N 25°48' W 080°15'0 0.0
2018-Jun-03 16:29N 25°48' W 080°15'0 0.0
2018-Jun-03 15:59N 25°48' W 080°15'0 0.0
2018-Jun-03 15:29N 25°48' W 080°15'0 0.0
2018-Jun-03 14:59N 25°48' W 080°15'0 0.0
2018-Jun-03 14:29N 25°48' W 080°15'0 0.0
2018-Jun-03 13:59N 25°48' W 080°15'0 0.0
2018-Jun-03 13:29N 25°48' W 080°15'0 0.0
2018-Jun-03 12:59N 25°48' W 080°15'0 0.0
2018-Jun-03 12:29N 25°48' W 080°15'0 0.0
2018-Jun-03 11:59N 25°48' W 080°15'0 0.0
2018-Jun-03 11:23N 25°48' W 080°15'0 0.0
2018-Jun-03 10:59N 25°48' W 080°15'0 0.0
2018-Jun-03 10:29N 25°48' W 080°15'0 0.0
2018-Jun-03 09:59N 25°48' W 080°15'0 0.0
2018-Jun-03 09:26N 25°48' W 080°15'0 0.0
2018-Jun-03 08:59N 25°48' W 080°15'0 0.0
2018-Jun-03 08:23N 25°48' W 080°15'0 0.0
2018-Jun-03 07:59N 25°48' W 080°15'0 0.0
2018-Jun-03 07:26N 25°48' W 080°15'0 0.0
2018-Jun-03 06:59N 25°48' W 080°15'0 0.0
2018-Jun-03 06:29N 25°48' W 080°15'0 0.0
2018-Jun-03 05:59N 25°48' W 080°15'0 0.0
2018-Jun-03 05:26N 25°48' W 080°15'0 0.0
2018-Jun-03 04:56N 25°48' W 080°15'0 0.0
2018-Jun-03 04:29N 25°48' W 080°15'0 0.0
2018-Jun-03 03:59N 25°48' W 080°15'0 0.0
2018-Jun-03 03:29N 25°48' W 080°15'0 0.0
2018-Jun-03 02:59N 25°48' W 080°15'0 0.0
2018-Jun-03 02:29N 25°48' W 080°15'0 0.0
2018-Jun-03 01:59N 25°48' W 080°15'0 0.0
2018-Jun-03 01:30N 25°48' W 080°15'0 0.0
2018-Jun-03 00:58N 25°48' W 080°15'0 0.0
2018-Jun-03 00:28N 25°48' W 080°15'0 0.0
2018-Jun-02 23:58N 25°48' W 080°15'0 0.0
2018-Jun-02 23:28N 25°48' W 080°15'0 0.0
2018-Jun-02 22:58N 25°48' W 080°15'0 0.0
2018-Jun-02 22:28N 25°48' W 080°15'0 0.0
2018-Jun-02 21:58N 25°48' W 080°15'0 0.0
2018-Jun-02 21:30N 25°48' W 080°15'0 0.0
2018-Jun-02 21:00N 25°48' W 080°15'0 0.0
2018-Jun-02 20:27N 25°48' W 080°15'0 0.0
2018-Jun-02 20:00N 25°48' W 080°15'0 0.0
2018-Jun-02 19:30N 25°48' W 080°15'0 0.0
2018-Jun-02 19:00N 25°48' W 080°15'0 0.0
2018-Jun-02 18:27N 25°48' W 080°15'0 0.0
2018-Jun-02 18:00N 25°48' W 080°15'0 0.0
2018-Jun-02 17:30N 25°48' W 080°15'0 0.0
2018-Jun-02 17:00N 25°48' W 080°15'0 0.0
2018-Jun-02 16:30N 25°48' W 080°15'0 0.0
2018-Jun-02 16:00N 25°48' W 080°15'0 0.0
2018-Jun-02 15:30N 25°48' W 080°15'0 0.0
2018-Jun-02 15:00N 25°48' W 080°15'0 0.0
2018-Jun-02 14:26N 25°48' W 080°15'0 0.0
2018-Jun-02 13:53N 25°48' W 080°15'0 0.0
2018-Jun-02 13:29N 25°48' W 080°15'0 0.0
2018-Jun-02 12:59N 25°48' W 080°15'0 0.0
2018-Jun-02 12:29N 25°48' W 080°15'0 0.0
2018-Jun-02 11:59N 25°48' W 080°15'0 0.0
2018-Jun-02 11:29N 25°48' W 080°15'0 0.0
2018-Jun-02 10:50N 25°48' W 080°15'0 0.0
2018-Jun-02 10:29N 25°48' W 080°15'0 0.0
2018-Jun-02 09:59N 25°48' W 080°15'0 0.0
2018-Jun-02 09:29N 25°48' W 080°15'0 0.0
2018-Jun-02 08:59N 25°48' W 080°15'0 0.0
2018-Jun-02 08:29N 25°48' W 080°15'0 0.0
2018-Jun-02 07:50N 25°48' W 080°15'0 0.0
2018-Jun-02 07:29N 25°48' W 080°15'0 0.0
2018-Jun-02 06:59N 25°48' W 080°15'0 0.0
2018-Jun-02 06:29N 25°48' W 080°15'0 0.0
2018-Jun-02 05:53N 25°48' W 080°15'0 0.0
2018-Jun-02 05:25N 25°48' W 080°15'0 0.0
2018-Jun-02 04:58N 25°48' W 080°15'0 0.0
2018-Jun-02 04:28N 25°48' W 080°15'0 0.0
2018-Jun-02 03:55N 25°48' W 080°15'0 0.0
2018-Jun-02 03:28N 25°48' W 080°15'0 0.0
2018-Jun-02 02:58N 25°48' W 080°15'0 0.0
2018-Jun-02 02:28N 25°48' W 080°15'0 0.0
2018-Jun-02 01:58N 25°48' W 080°15'0 0.0
2018-Jun-02 01:25N 25°48' W 080°15'0 0.0
2018-Jun-02 00:58N 25°48' W 080°15'0 0.0
2018-Jun-02 00:28N 25°48' W 080°15'0 0.0
2018-Jun-01 23:58N 25°48' W 080°15'0 0.0
2018-Jun-01 23:25N 25°48' W 080°15'0 0.0
2018-Jun-01 22:52N 25°48' W 080°15'0 0.0
2018-Jun-01 22:25N 25°48' W 080°15'0 0.0
2018-Jun-01 21:55N 25°48' W 080°15'0 0.0
2018-Jun-01 21:28N 25°48' W 080°15'0 0.0
2018-Jun-01 20:58N 25°48' W 080°15'0 0.0
2018-Jun-01 20:25N 25°48' W 080°15'0 0.0
2018-Jun-01 19:58N 25°48' W 080°15'0 0.0
2018-Jun-01 19:28N 25°48' W 080°15'0 0.0
2018-Jun-01 18:55N 25°48' W 080°15'0 0.0
2018-Jun-01 18:25N 25°48' W 080°15'0 0.0
2018-Jun-01 18:00N 25°48' W 080°15'0 0.0
2018-Jun-01 17:30N 25°48' W 080°15'0 0.0
2018-Jun-01 17:00N 25°48' W 080°15'0 0.0
2018-Jun-01 16:27N 25°48' W 080°15'0 0.0
2018-Jun-01 16:00N 25°48' W 080°15'0 0.0
2018-Jun-01 15:30N 25°48' W 080°15'0 0.0
2018-Jun-01 15:00N 25°48' W 080°15'0 0.0
2018-Jun-01 14:30N 25°48' W 080°15'0 0.0
2018-Jun-01 14:00N 25°48' W 080°15'0 0.0
2018-Jun-01 13:30N 25°48' W 080°15'0 0.0
2018-Jun-01 13:00N 25°48' W 080°15'0 0.0
2018-Jun-01 12:30N 25°48' W 080°15'0 0.0
2018-Jun-01 11:54N 25°48' W 080°15'0 0.0
2018-Jun-01 11:30N 25°48' W 080°15'0 0.0
2018-Jun-01 11:00N 25°48' W 080°15'0 0.0
2018-Jun-01 10:23N 25°48' W 080°15'0 0.0
2018-Jun-01 09:59N 25°48' W 080°15'0 0.0
2018-Jun-01 09:29N 25°48' W 080°15'0 0.0
2018-Jun-01 08:56N 25°48' W 080°15'0 0.0
2018-Jun-01 08:29N 25°48' W 080°15'0 0.0
2018-Jun-01 07:50N 25°48' W 080°15'0 0.0
2018-Jun-01 07:23N 25°48' W 080°15'0 0.0
2018-Jun-01 06:59N 25°48' W 080°15'0 0.0
2018-Jun-01 06:29N 25°48' W 080°15'0 0.0
2018-Jun-01 05:59N 25°48' W 080°15'0 0.0
2018-Jun-01 05:23N 25°48' W 080°15'0 0.0
2018-Jun-01 04:56N 25°48' W 080°15'0 0.0
2018-Jun-01 04:23N 25°48' W 080°15'0 0.0
2018-Jun-01 03:59N 25°48' W 080°15'0 0.0
2018-Jun-01 03:29N 25°48' W 080°15'0 0.0
2018-Jun-01 02:59N 25°48' W 080°15'0 0.0
2018-Jun-01 02:29N 25°48' W 080°15'0 0.0
2018-Jun-01 01:59N 25°48' W 080°15'0 0.0
2018-Jun-01 01:29N 25°48' W 080°15'0 0.0
2018-Jun-01 00:59N 25°48' W 080°15'0 0.0
2018-Jun-01 00:29N 25°48' W 080°15'0 0.0
2018-May-31 23:59N 25°48' W 080°15'0 0.0
2018-May-31 23:26N 25°48' W 080°15'0 0.0
2018-May-31 22:59N 25°48' W 080°15'0 0.0
2018-May-31 22:20N 25°48' W 080°15'0 0.0
2018-May-31 21:59N 25°48' W 080°15'0 0.0
2018-May-31 21:29N 25°48' W 080°15'0 0.0
2018-May-31 20:59N 25°48' W 080°15'0 0.0
2018-May-31 20:29N 25°48' W 080°15'0 0.0
2018-May-31 19:53N 25°48' W 080°15'0 0.0
2018-May-31 19:23N 25°48' W 080°15'0 0.0
2018-May-31 18:56N 25°48' W 080°15'0 0.0
2018-May-31 18:23N 25°48' W 080°15'0 0.0
2018-May-31 17:56N 25°48' W 080°15'0 0.0
2018-May-31 17:23N 25°48' W 080°15'0 0.0
2018-May-31 16:53N 25°48' W 080°15'0 0.0
2018-May-31 16:28N 25°48' W 080°15'0 0.0
2018-May-31 15:58N 25°48' W 080°15'0 0.0
2018-May-31 15:25N 25°48' W 080°15'0 0.0
2018-May-31 14:55N 25°48' W 080°15'0 0.0
2018-May-31 14:28N 25°48' W 080°15'0 0.0
2018-May-31 13:55N 25°48' W 080°15'0 0.0
2018-May-31 13:28N 25°48' W 080°15'0 0.0
2018-May-31 12:58N 25°48' W 080°15'0 0.0
2018-May-31 12:28N 25°48' W 080°15'0 0.0
2018-May-31 11:55N 25°48' W 080°15'0 0.0
2018-May-31 11:25N 25°48' W 080°15'0 0.0
2018-May-31 10:58N 25°48' W 080°15'0 0.0
2018-May-31 10:28N 25°48' W 080°15'0 0.0
2018-May-31 09:58N 25°48' W 080°15'0 0.0
2018-May-31 09:28N 25°48' W 080°15'0 0.0
2018-May-31 08:58N 25°48' W 080°15'0 0.0
2018-May-31 08:28N 25°48' W 080°15'0 0.0
2018-May-31 07:58N 25°48' W 080°15'0 0.0
2018-May-31 07:28N 25°48' W 080°15'0 0.0
2018-May-31 06:58N 25°48' W 080°15'0 0.0
2018-May-31 06:28N 25°48' W 080°15'0 0.0
2018-May-31 05:58N 25°48' W 080°15'0 0.0
2018-May-31 05:22N 25°48' W 080°15'0 0.0
2018-May-31 04:58N 25°48' W 080°15'0 0.0
2018-May-31 04:28N 25°48' W 080°15'0 0.0
2018-May-31 03:52N 25°48' W 080°15'0 0.0
2018-May-31 03:28N 25°48' W 080°15'  
Track history (hours):
 
Tides and Currents Weather Stations Pressure Air Temp Water Temp Dewpoint Dewpoint Depression Visibility Wind Speed Wind Dir Waves Ship Positions

Tanica\sunbeam

Last reported at 2018-Jun-10 03:24 UTC. Time now 2018-Jun-19 20:08 UTC.
Position N 25°29' W 079°48'.
Warning: this ship's position is 9 days out of date.

Length 66 m; draft 4.5 m.

Type: Cargo ship. MMSI: 219208000.

Date/timePositionNaut miles runAvg speedWind from/ knotsBaromVisibWave heightAir tempDewpointWater temp
2018-Jun-10 03:24N 25°29' W 079°48'2 5.5
2018-Jun-10 03:00N 25°30' W 079°49'3 5.5
2018-Jun-10 02:30N 25°32' W 079°51'3 5.1
2018-Jun-10 02:00N 25°34' W 079°53'3 5.3
2018-Jun-10 01:30N 25°36' W 079°56'3 5.7
2018-Jun-10 01:00N 25°38' W 079°58'3 6.4
2018-Jun-10 00:30N 25°40' W 080°00'3 6.9
2018-Jun-10 00:00N 25°43' W 080°02'4 7.4
2018-Jun-09 23:31N 25°46' W 080°05'4 7.2
2018-Jun-09 23:00N 25°46' W 080°09'2 4.8
2018-Jun-09 22:30N 25°46' W 080°12'1 2.8
2018-Jun-09 22:00N 25°47' W 080°13'2 3.2
2018-Jun-09 21:31N 25°48' W 080°14'1 1.8
2018-Jun-09 20:58N 25°48' W 080°15'0 0.0
2018-Jun-09 20:28N 25°48' W 080°15'0 0.0
2018-Jun-09 19:58N 25°48' W 080°15'0 0.0
2018-Jun-09 19:28N 25°48' W 080°15'0 0.0
2018-Jun-09 18:58N 25°48' W 080°15'0 0.0
2018-Jun-09 18:28N 25°48' W 080°15'0 0.0
2018-Jun-09 17:58N 25°48' W 080°15'0 0.0
2018-Jun-09 17:28N 25°48' W 080°15'0 0.0
2018-Jun-09 16:58N 25°48' W 080°15'0 0.0
2018-Jun-09 16:28N 25°48' W 080°15'0 0.0
2018-Jun-09 15:58N 25°48' W 080°15'0 0.0
2018-Jun-09 15:28N 25°48' W 080°15'0 0.0
2018-Jun-09 14:28N 25°48' W 080°15'0 0.0
2018-Jun-09 13:57N 25°48' W 080°15'0 0.0
2018-Jun-09 13:30N 25°48' W 080°15'0 0.0
2018-Jun-09 12:57N 25°48' W 080°15'0 0.0
2018-Jun-09 12:27N 25°48' W 080°15'0 0.0
2018-Jun-09 11:57N 25°48' W 080°15'0 0.0
2018-Jun-09 11:30N 25°48' W 080°15'0 0.0
2018-Jun-09 11:00N 25°48' W 080°15'0 0.0
2018-Jun-09 10:30N 25°48' W 080°15'0 0.0
2018-Jun-09 10:00N 25°48' W 080°15'0 0.0
2018-Jun-09 09:30N 25°48' W 080°15'0 0.0
2018-Jun-09 09:00N 25°48' W 080°15'0 0.0
2018-Jun-09 08:30N 25°48' W 080°15'0 0.0
2018-Jun-09 08:00N 25°48' W 080°15'0 0.0
2018-Jun-09 07:30N 25°48' W 080°15'0 0.0
2018-Jun-09 06:57N 25°48' W 080°15'0 0.0
2018-Jun-09 06:24N 25°48' W 080°15'0 0.0
2018-Jun-09 05:57N 25°48' W 080°15'0 0.0
2018-Jun-09 05:27N 25°48' W 080°15'0 0.0
2018-Jun-09 04:57N 25°48' W 080°15'0 0.0
2018-Jun-09 04:27N 25°48' W 080°15'0 0.0
2018-Jun-09 04:00N 25°48' W 080°15'0 0.0
2018-Jun-09 03:27N 25°48' W 080°15'0 0.0
2018-Jun-09 03:00N 25°48' W 080°15'0 0.0
2018-Jun-09 02:30N 25°48' W 080°15'0 0.0
2018-Jun-09 02:00N 25°48' W 080°15'0 0.0
2018-Jun-09 01:30N 25°48' W 080°15'0 0.0
2018-Jun-09 01:00N 25°48' W 080°15'0 0.0
2018-Jun-09 00:29N 25°48' W 080°15'0 0.0
2018-Jun-08 23:56N 25°48' W 080°15'0 0.0
2018-Jun-08 23:29N 25°48' W 080°15'0 0.0
2018-Jun-08 22:59N 25°48' W 080°15'0 0.0
2018-Jun-08 22:29N 25°48' W 080°15'0 0.0
2018-Jun-08 21:59N 25°48' W 080°15'0 0.0
2018-Jun-08 21:29N 25°48' W 080°15'0 0.0
2018-Jun-08 20:59N 25°48' W 080°15'0 0.0
2018-Jun-08 20:29N 25°48' W 080°15'0 0.0
2018-Jun-08 19:59N 25°48' W 080°15'0 0.0
2018-Jun-08 19:29N 25°48' W 080°15'0 0.0
2018-Jun-08 18:59N 25°48' W 080°15'0 0.0
2018-Jun-08 18:26N 25°48' W 080°15'0 0.0
2018-Jun-08 17:59N 25°48' W 080°15'0 0.0
2018-Jun-08 17:29N 25°48' W 080°15'0 0.0
2018-Jun-08 16:59N 25°48' W 080°15'0 0.0
2018-Jun-08 16:29N 25°48' W 080°15'0 0.0
2018-Jun-08 15:59N 25°48' W 080°15'0 0.0
2018-Jun-08 15:29N 25°48' W 080°15'0 0.0
2018-Jun-08 14:59N 25°48' W 080°15'0 0.0
2018-Jun-08 14:29N 25°48' W 080°15'0 0.0
2018-Jun-08 13:59N 25°48' W 080°15'0 0.0
2018-Jun-08 13:29N 25°48' W 080°15'0 0.0
2018-Jun-08 12:59N 25°48' W 080°15'0 0.0
2018-Jun-08 12:29N 25°48' W 080°15'0 0.0
2018-Jun-08 11:59N 25°48' W 080°15'0 0.0
2018-Jun-08 11:29N 25°48' W 080°15'0 0.0
2018-Jun-08 10:59N 25°48' W 080°15'0 0.0
2018-Jun-08 10:29N 25°48' W 080°15'0 0.0
2018-Jun-08 09:59N 25°48' W 080°15'0 0.0
2018-Jun-08 09:23N 25°48' W 080°15'0 0.0
2018-Jun-08 08:56N 25°48' W 080°15'0 0.0
2018-Jun-08 08:29N 25°48' W 080°15'0 0.0
2018-Jun-08 07:59N 25°48' W 080°15'0 0.0
2018-Jun-08 07:20N 25°48' W 080°15'0 0.0
2018-Jun-08 06:56N 25°48' W 080°15'0 0.0
2018-Jun-08 06:29N 25°48' W 080°15'0 0.0
2018-Jun-08 05:59N 25°48' W 080°15'0 0.0
2018-Jun-08 05:29N 25°48' W 080°15'0 0.0
2018-Jun-08 04:59N 25°48' W 080°15'0 0.0
2018-Jun-08 04:29N 25°48' W 080°15'0 0.0
2018-Jun-08 03:58N 25°48' W 080°15'0 0.0
2018-Jun-08 03:28N 25°48' W 080°15'0 0.0
2018-Jun-08 02:58N 25°48' W 080°15'0 0.0
2018-Jun-08 02:28N 25°48' W 080°15'0 0.0
2018-Jun-08 01:58N 25°48' W 080°15'0 0.0
2018-Jun-08 01:28N 25°48' W 080°15'0 0.0
2018-Jun-08 00:58N 25°48' W 080°15'0 0.0
2018-Jun-08 00:28N 25°48' W 080°15'0 0.0
2018-Jun-07 23:58N 25°48' W 080°15'0 0.0
2018-Jun-07 23:28N 25°48' W 080°15'0 0.0
2018-Jun-07 22:58N 25°48' W 080°15'0 0.0
2018-Jun-07 22:28N 25°48' W 080°15'0 0.0
2018-Jun-07 21:58N 25°48' W 080°15'0 0.0
2018-Jun-07 21:28N 25°48' W 080°15'0 0.0
2018-Jun-07 20:58N 25°48' W 080°15'0 0.0
2018-Jun-07 20:28N 25°48' W 080°15'0 0.0
2018-Jun-07 19:58N 25°48' W 080°15'0 0.0
2018-Jun-07 19:25N 25°48' W 080°15'0 0.0
2018-Jun-07 18:58N 25°48' W 080°15'0 0.0
2018-Jun-07 18:28N 25°48' W 080°15'0 0.0
2018-Jun-07 17:58N 25°48' W 080°15'0 0.0
2018-Jun-07 17:25N 25°48' W 080°15'0 0.0
2018-Jun-07 16:58N 25°48' W 080°15'0 0.0
2018-Jun-07 16:25N 25°48' W 080°15'0 0.0
2018-Jun-07 15:55N 25°48' W 080°15'0 0.0
2018-Jun-07 15:19N 25°48' W 080°15'0 0.0
2018-Jun-07 14:52N 25°48' W 080°15'0 0.0
2018-Jun-07 14:30N 25°48' W 080°15'0 0.0
2018-Jun-07 13:58N 25°48' W 080°15'0 0.0
2018-Jun-07 13:31N 25°48' W 080°15'0 0.0
2018-Jun-07 13:01N 25°48' W 080°15'0 0.0
2018-Jun-07 12:31N 25°48' W 080°15'0 0.0
2018-Jun-07 12:00N 25°48' W 080°15'0 0.0
2018-Jun-07 11:30N 25°48' W 080°15'0 0.0
2018-Jun-07 11:00N 25°48' W 080°15'0 0.0
2018-Jun-07 10:30N 25°48' W 080°15'0 0.0
2018-Jun-07 10:00N 25°48' W 080°15'0 0.0
2018-Jun-07 09:30N 25°48' W 080°15'0 0.0
2018-Jun-07 09:00N 25°48' W 080°15'0 0.0
2018-Jun-07 08:30N 25°48' W 080°15'0 0.0
2018-Jun-07 08:00N 25°48' W 080°15'0 0.0
2018-Jun-07 07:30N 25°48' W 080°15'0 0.0
2018-Jun-07 07:00N 25°48' W 080°15'0 0.0
2018-Jun-07 06:30N 25°48' W 080°15'0 0.0
2018-Jun-07 06:00N 25°48' W 080°15'0 0.0
2018-Jun-07 05:30N 25°48' W 080°15'0 0.0
2018-Jun-07 05:00N 25°48' W 080°15'0 0.0
2018-Jun-07 04:30N 25°48' W 080°15'0 0.0
2018-Jun-07 04:00N 25°48' W 080°15'0 0.0
2018-Jun-07 03:30N 25°48' W 080°15'0 0.0
2018-Jun-07 03:00N 25°48' W 080°15'0 0.0
2018-Jun-07 02:30N 25°48' W 080°15'0 0.0
2018-Jun-07 02:00N 25°48' W 080°15'0 0.0
2018-Jun-07 01:30N 25°48' W 080°15'0 0.0
2018-Jun-07 01:00N 25°48' W 080°15'0 0.0
2018-Jun-07 00:30N 25°48' W 080°15'0 0.0
2018-Jun-07 00:00N 25°48' W 080°15'0 0.0
2018-Jun-06 23:30N 25°48' W 080°15'0 0.0
2018-Jun-06 23:00N 25°48' W 080°15'0 0.0
2018-Jun-06 22:30N 25°48' W 080°15'0 0.0
2018-Jun-06 22:00N 25°48' W 080°15'0 0.0
2018-Jun-06 21:30N 25°48' W 080°15'0 0.0
2018-Jun-06 21:00N 25°48' W 080°15'0 0.0
2018-Jun-06 20:30N 25°48' W 080°15'0 0.0
2018-Jun-06 20:00N 25°48' W 080°15'0 0.0
2018-Jun-06 19:30N 25°48' W 080°15'0 0.0
2018-Jun-06 19:00N 25°48' W 080°15'0 0.0
2018-Jun-06 18:24N 25°48' W 080°15'0 0.0
2018-Jun-06 17:59N 25°48' W 080°15'0 0.0
2018-Jun-06 17:26N 25°48' W 080°15'0 0.0
2018-Jun-06 16:59N 25°48' W 080°15'0 0.0
2018-Jun-06 16:29N 25°48' W 080°15'0 0.0
2018-Jun-06 15:58N 25°48' W 080°15'0 0.0
2018-Jun-06 15:28N 25°48' W 080°15'0 0.0
2018-Jun-06 14:58N 25°48' W 080°15'0 0.0
2018-Jun-06 14:28N 25°48' W 080°15'0 0.0
2018-Jun-06 13:58N 25°48' W 080°15'0 0.0
2018-Jun-06 13:28N 25°48' W 080°15'0 0.0
2018-Jun-06 12:58N 25°48' W 080°15'0 0.0
2018-Jun-06 12:28N 25°48' W 080°15'0 0.0
2018-Jun-06 11:58N 25°48' W 080°15'0 0.0
2018-Jun-06 11:28N 25°48' W 080°15'0 0.0
2018-Jun-06 10:58N 25°48' W 080°15'0 0.0
2018-Jun-06 10:28N 25°48' W 080°15'0 0.0
2018-Jun-06 09:58N 25°48' W 080°15'0 0.0
2018-Jun-06 09:28N 25°48' W 080°15'0 0.0
2018-Jun-06 08:55N 25°48' W 080°15'0 0.0
2018-Jun-06 08:30N 25°48' W 080°15'0 0.0
2018-Jun-06 07:57N 25°48' W 080°15'0 0.0
2018-Jun-06 07:27N 25°48' W 080°15'0 0.0
2018-Jun-06 06:54N 25°48' W 080°15'0 0.0
2018-Jun-06 06:27N 25°48' W 080°15'0 0.0
2018-Jun-06 06:00N 25°48' W 080°15'0 0.0
2018-Jun-06 05:27N 25°48' W 080°15'0 0.0
2018-Jun-06 04:54N 25°48' W 080°15'0 0.0
2018-Jun-06 04:27N 25°48' W 080°15'0 0.0
2018-Jun-06 04:00N 25°48' W 080°15'0 0.0
2018-Jun-06 03:30N 25°48' W 080°15'0 0.0
2018-Jun-06 03:00N 25°48' W 080°15'0 0.0
2018-Jun-06 02:30N 25°48' W 080°15'0 0.0
2018-Jun-06 02:00N 25°48' W 080°15'0 0.0
2018-Jun-06 01:30N 25°48' W 080°15'0 0.0
2018-Jun-06 01:00N 25°48' W 080°15'0 0.0
2018-Jun-06 00:30N 25°48' W 080°15'0 0.0
2018-Jun-05 23:54N 25°48' W 080°15'0 0.0
2018-Jun-05 23:30N 25°48' W 080°15'0 0.0
2018-Jun-05 23:00N 25°48' W 080°15'0 0.0
2018-Jun-05 22:30N 25°48' W 080°15'0 0.0
2018-Jun-05 22:00N 25°48' W 080°15'0 0.0
2018-Jun-05 21:30N 25°48' W 080°15'0 0.0
2018-Jun-05 21:00N 25°48' W 080°15'0 0.0
2018-Jun-05 20:27N 25°48' W 080°15'0 0.0
2018-Jun-05 20:00N 25°48' W 080°15'0 0.0
2018-Jun-05 19:24N 25°48' W 080°15'0 0.0
2018-Jun-05 19:00N 25°48' W 080°15'0 0.0
2018-Jun-05 18:30N 25°48' W 080°15'0 0.0
2018-Jun-05 17:57N 25°48' W 080°15'0 0.0
2018-Jun-05 17:24N 25°48' W 080°15'0 0.0
2018-Jun-05 16:57N 25°48' W 080°15'0 0.0
2018-Jun-05 16:24N 25°48' W 080°15'0 0.0
2018-Jun-05 15:57N 25°48' W 080°15'0 0.0
2018-Jun-05 15:30N 25°48' W 080°15'0 0.0
2018-Jun-05 14:56N 25°48' W 080°15'0 0.0
2018-Jun-05 14:29N 25°48' W 080°15'0 0.0
2018-Jun-05 13:59N 25°48' W 080°15'0 0.0
2018-Jun-05 13:26N 25°48' W 080°15'0 0.0
2018-Jun-05 12:59N 25°48' W 080°15'0 0.0
2018-Jun-05 12:29N 25°48' W 080°15'0 0.0
2018-Jun-05 11:56N 25°48' W 080°15'0 0.0
2018-Jun-05 11:29N 25°48' W 080°15'0 0.0
2018-Jun-05 10:59N 25°48' W 080°15'0 0.0
2018-Jun-05 10:26N 25°48' W 080°15'0 0.0
2018-Jun-05 09:59N 25°48' W 080°15'0 0.0
2018-Jun-05 09:26N 25°48' W 080°15'0 0.0
2018-Jun-05 08:56N 25°48' W 080°15'0 0.0
2018-Jun-05 08:29N 25°48' W 080°15'0 0.0
2018-Jun-05 07:59N 25°48' W 080°15'0 0.0
2018-Jun-05 07:26N 25°48' W 080°15'0 0.0
2018-Jun-05 06:59N 25°48' W 080°15'0 0.0
2018-Jun-05 06:29N 25°48' W 080°15'0 0.0
2018-Jun-05 05:56N 25°48' W 080°15'0 0.0
2018-Jun-05 05:29N 25°48' W 080°15'0 0.0
2018-Jun-05 04:59N 25°48' W 080°15'0 0.0
2018-Jun-05 04:29N 25°48' W 080°15'0 0.0
2018-Jun-05 03:59N 25°48' W 080°15'0 0.0
2018-Jun-05 03:29N 25°48' W 080°15'0 0.0
2018-Jun-05 02:59N 25°48' W 080°15'0 0.0
2018-Jun-05 02:26N 25°48' W 080°15'0 0.0
2018-Jun-05 01:59N 25°48' W 080°15'0 0.0
2018-Jun-05 01:29N 25°48' W 080°15'0 0.0
2018-Jun-05 00:56N 25°48' W 080°15'0 0.0
2018-Jun-05 00:26N 25°48' W 080°15'0 0.0
2018-Jun-04 23:59N 25°48' W 080°15'0 0.0
2018-Jun-04 23:29N 25°48' W 080°15'0 0.0
2018-Jun-04 22:56N 25°48' W 080°15'0 0.0
2018-Jun-04 22:26N 25°48' W 080°15'0 0.0
2018-Jun-04 21:59N 25°48' W 080°15'0 0.0
2018-Jun-04 21:26N 25°48' W 080°15'0 0.0
2018-Jun-04 20:58N 25°48' W 080°15'0 0.0
2018-Jun-04 20:28N 25°48' W 080°15'0 0.0
2018-Jun-04 19:58N 25°48' W 080°15'0 0.0
2018-Jun-04 19:28N 25°48' W 080°15'0 0.0
2018-Jun-04 18:58N 25°48' W 080°15'0 0.0
2018-Jun-04 18:28N 25°48' W 080°15'0 0.0
2018-Jun-04 17:58N 25°48' W 080°15'0 0.0
2018-Jun-04 17:25N 25°48' W 080°15'0 0.0
2018-Jun-04 16:58N 25°48' W 080°15'0 0.0
2018-Jun-04 16:25N 25°48' W 080°15'0 0.0
2018-Jun-04 15:58N 25°48' W 080°15'0 0.0
2018-Jun-04 15:28N 25°48' W 080°15'0 0.0
2018-Jun-04 14:58N 25°48' W 080°15'0 0.0
2018-Jun-04 14:30N 25°48' W 080°15'0 0.0
2018-Jun-04 14:00N 25°48' W 080°15'0 0.0
2018-Jun-04 13:30N 25°48' W 080°15'0 0.0
2018-Jun-04 13:00N 25°48' W 080°15'0 0.0
2018-Jun-04 12:30N 25°48' W 080°15'0 0.0
2018-Jun-04 12:00N 25°48' W 080°15'0 0.0
2018-Jun-04 11:30N 25°48' W 080°15'0 0.0
2018-Jun-04 11:00N 25°48' W 080°15'0 0.0
2018-Jun-04 10:27N 25°48' W 080°15'0 0.0
2018-Jun-04 10:00N 25°48' W 080°15'0 0.0
2018-Jun-04 09:30N 25°48' W 080°15'0 0.0
2018-Jun-04 09:00N 25°48' W 080°15'0 0.0
2018-Jun-04 08:30N 25°48' W 080°15'0 0.0
2018-Jun-04 08:00N 25°48' W 080°15'0 0.0
2018-Jun-04 07:30N 25°48' W 080°15'0 0.0
2018-Jun-04 07:00N 25°48' W 080°15'0 0.0
2018-Jun-04 06:30N 25°48' W 080°15'0 0.0
2018-Jun-04 06:00N 25°48' W 080°15'0 0.0
2018-Jun-04 05:30N 25°48' W 080°15'0 0.0
2018-Jun-04 05:00N 25°48' W 080°15'0 0.0
2018-Jun-04 04:30N 25°48' W 080°15'0 0.0
2018-Jun-04 04:00N 25°48' W 080°15'0 0.0
2018-Jun-04 03:30N 25°48' W 080°15'0 0.0
2018-Jun-04 03:00N 25°48' W 080°15'0 0.0
2018-Jun-04 02:30N 25°48' W 080°15'0 0.0
2018-Jun-04 02:00N 25°48' W 080°15'0 0.0
2018-Jun-04 01:30N 25°48' W 080°15'0 0.0
2018-Jun-04 01:00N 25°48' W 080°15'0 0.0
2018-Jun-04 00:30N 25°48' W 080°15'0 0.0
2018-Jun-03 23:59N 25°48' W 080°15'0 0.0
2018-Jun-03 23:29N 25°48' W 080°15'0 0.0
2018-Jun-03 22:59N 25°48' W 080°15'0 0.0
2018-Jun-03 22:29N 25°48' W 080°15'0 0.0
2018-Jun-03 21:59N 25°48' W 080°15'0 0.0
2018-Jun-03 21:29N 25°48' W 080°15'0 0.0
2018-Jun-03 20:59N 25°48' W 080°15'0 0.0
2018-Jun-03 20:29N 25°48' W 080°15'0 0.0
2018-Jun-03 19:59N 25°48' W 080°15'0 0.0
2018-Jun-03 19:29N 25°48' W 080°15'0 0.0
2018-Jun-03 18:59N 25°48' W 080°15'0 0.0
2018-Jun-03 18:29N 25°48' W 080°15'0 0.0
2018-Jun-03 17:59N 25°48' W 080°15'0 0.0
2018-Jun-03 17:29N 25°48' W 080°15'0 0.0
2018-Jun-03 16:59N 25°48' W 080°15'0 0.0
2018-Jun-03 16:29N 25°48' W 080°15'0 0.0
2018-Jun-03 15:59N 25°48' W 080°15'0 0.0
2018-Jun-03 15:29N 25°48' W 080°15'0 0.0
2018-Jun-03 14:59N 25°48' W 080°15'0 0.0
2018-Jun-03 14:29N 25°48' W 080°15'0 0.0
2018-Jun-03 13:59N 25°48' W 080°15'0 0.0
2018-Jun-03 13:29N 25°48' W 080°15'0 0.0
2018-Jun-03 12:59N 25°48' W 080°15'0 0.0
2018-Jun-03 12:29N 25°48' W 080°15'0 0.0
2018-Jun-03 11:59N 25°48' W 080°15'0 0.0
2018-Jun-03 11:23N 25°48' W 080°15'0 0.0
2018-Jun-03 10:59N 25°48' W 080°15'0 0.0
2018-Jun-03 10:29N 25°48' W 080°15'0 0.0
2018-Jun-03 09:59N 25°48' W 080°15'0 0.0
2018-Jun-03 09:26N 25°48' W 080°15'0 0.0
2018-Jun-03 08:59N 25°48' W 080°15'0 0.0
2018-Jun-03 08:23N 25°48' W 080°15'0 0.0
2018-Jun-03 07:59N 25°48' W 080°15'0 0.0
2018-Jun-03 07:26N 25°48' W 080°15'0 0.0
2018-Jun-03 06:59N 25°48' W 080°15'0 0.0
2018-Jun-03 06:29N 25°48' W 080°15'0 0.0
2018-Jun-03 05:59N 25°48' W 080°15'0 0.0
2018-Jun-03 05:26N 25°48' W 080°15'0 0.0
2018-Jun-03 04:56N 25°48' W 080°15'0 0.0
2018-Jun-03 04:29N 25°48' W 080°15'0 0.0
2018-Jun-03 03:59N 25°48' W 080°15'0 0.0
2018-Jun-03 03:29N 25°48' W 080°15'0 0.0
2018-Jun-03 02:59N 25°48' W 080°15'0 0.0
2018-Jun-03 02:29N 25°48' W 080°15'0 0.0
2018-Jun-03 01:59N 25°48' W 080°15'0 0.0
2018-Jun-03 01:30N 25°48' W 080°15'0 0.0
2018-Jun-03 00:58N 25°48' W 080°15'0 0.0
2018-Jun-03 00:28N 25°48' W 080°15'0 0.0
2018-Jun-02 23:58N 25°48' W 080°15'0 0.0
2018-Jun-02 23:28N 25°48' W 080°15'0 0.0
2018-Jun-02 22:58N 25°48' W 080°15'0 0.0
2018-Jun-02 22:28N 25°48' W 080°15'0 0.0
2018-Jun-02 21:58N 25°48' W 080°15'0 0.0
2018-Jun-02 21:30N 25°48' W 080°15'0 0.0
2018-Jun-02 21:00N 25°48' W 080°15'0 0.0
2018-Jun-02 20:27N 25°48' W 080°15'0 0.0
2018-Jun-02 20:00N 25°48' W 080°15'0 0.0
2018-Jun-02 19:30N 25°48' W 080°15'0 0.0
2018-Jun-02 19:00N 25°48' W 080°15'0 0.0
2018-Jun-02 18:27N 25°48' W 080°15'0 0.0
2018-Jun-02 18:00N 25°48' W 080°15'0 0.0
2018-Jun-02 17:30N 25°48' W 080°15'0 0.0
2018-Jun-02 17:00N 25°48' W 080°15'0 0.0
2018-Jun-02 16:30N 25°48' W 080°15'0 0.0
2018-Jun-02 16:00N 25°48' W 080°15'0 0.0
2018-Jun-02 15:30N 25°48' W 080°15'0 0.0
2018-Jun-02 15:00N 25°48' W 080°15'0 0.0
2018-Jun-02 14:26N 25°48' W 080°15'0 0.0
2018-Jun-02 13:53N 25°48' W 080°15'0 0.0
2018-Jun-02 13:29N 25°48' W 080°15'0 0.0
2018-Jun-02 12:59N 25°48' W 080°15'0 0.0
2018-Jun-02 12:29N 25°48' W 080°15'0 0.0
2018-Jun-02 11:59N 25°48' W 080°15'0 0.0
2018-Jun-02 11:29N 25°48' W 080°15'0 0.0
2018-Jun-02 10:50N 25°48' W 080°15'0 0.0
2018-Jun-02 10:29N 25°48' W 080°15'0 0.0
2018-Jun-02 09:59N 25°48' W 080°15'0 0.0
2018-Jun-02 09:29N 25°48' W 080°15'0 0.0
2018-Jun-02 08:59N 25°48' W 080°15'0 0.0
2018-Jun-02 08:29N 25°48' W 080°15'0 0.0
2018-Jun-02 07:50N 25°48' W 080°15'0 0.0
2018-Jun-02 07:29N 25°48' W 080°15'0 0.0
2018-Jun-02 06:59N 25°48' W 080°15'0 0.0
2018-Jun-02 06:29N 25°48' W 080°15'0 0.0
2018-Jun-02 05:53N 25°48' W 080°15'0 0.0
2018-Jun-02 05:25N 25°48' W 080°15'0 0.0
2018-Jun-02 04:58N 25°48' W 080°15'0 0.0
2018-Jun-02 04:28N 25°48' W 080°15'0 0.0
2018-Jun-02 03:55N 25°48' W 080°15'0 0.0
2018-Jun-02 03:28N 25°48' W 080°15'0 0.0
2018-Jun-02 02:58N 25°48' W 080°15'0 0.0
2018-Jun-02 02:28N 25°48' W 080°15'0 0.0
2018-Jun-02 01:58N 25°48' W 080°15'0 0.0
2018-Jun-02 01:25N 25°48' W 080°15'0 0.0
2018-Jun-02 00:58N 25°48' W 080°15'0 0.0
2018-Jun-02 00:28N 25°48' W 080°15'0 0.0
2018-Jun-01 23:58N 25°48' W 080°15'0 0.0
2018-Jun-01 23:25N 25°48' W 080°15'0 0.0
2018-Jun-01 22:52N 25°48' W 080°15'0 0.0
2018-Jun-01 22:25N 25°48' W 080°15'0 0.0
2018-Jun-01 21:55N 25°48' W 080°15'0 0.0
2018-Jun-01 21:28N 25°48' W 080°15'0 0.0
2018-Jun-01 20:58N 25°48' W 080°15'0 0.0
2018-Jun-01 20:25N 25°48' W 080°15'0 0.0
2018-Jun-01 19:58N 25°48' W 080°15'0 0.0
2018-Jun-01 19:28N 25°48' W 080°15'0 0.0
2018-Jun-01 18:55N 25°48' W 080°15'0 0.0
2018-Jun-01 18:25N 25°48' W 080°15'0 0.0
2018-Jun-01 18:00N 25°48' W 080°15'0 0.0
2018-Jun-01 17:30N 25°48' W 080°15'0 0.0
2018-Jun-01 17:00N 25°48' W 080°15'0 0.0
2018-Jun-01 16:27N 25°48' W 080°15'0 0.0
2018-Jun-01 16:00N 25°48' W 080°15'0 0.0
2018-Jun-01 15:30N 25°48' W 080°15'0 0.0
2018-Jun-01 15:00N 25°48' W 080°15'0 0.0
2018-Jun-01 14:30N 25°48' W 080°15'0 0.0
2018-Jun-01 14:00N 25°48' W 080°15'0 0.0
2018-Jun-01 13:30N 25°48' W 080°15'0 0.0
2018-Jun-01 13:00N 25°48' W 080°15'0 0.0
2018-Jun-01 12:30N 25°48' W 080°15'0 0.0
2018-Jun-01 11:54N 25°48' W 080°15'0 0.0
2018-Jun-01 11:30N 25°48' W 080°15'0 0.0
2018-Jun-01 11:00N 25°48' W 080°15'0 0.0
2018-Jun-01 10:23N 25°48' W 080°15'0 0.0
2018-Jun-01 09:59N 25°48' W 080°15'0 0.0
2018-Jun-01 09:29N 25°48' W 080°15'0 0.0
2018-Jun-01 08:56N 25°48' W 080°15'0 0.0
2018-Jun-01 08:29N 25°48' W 080°15'0 0.0
2018-Jun-01 07:50N 25°48' W 080°15'0 0.0
2018-Jun-01 07:23N 25°48' W 080°15'0 0.0
2018-Jun-01 06:59N 25°48' W 080°15'0 0.0
2018-Jun-01 06:29N 25°48' W 080°15'0 0.0
2018-Jun-01 05:59N 25°48' W 080°15'0 0.0
2018-Jun-01 05:23N 25°48' W 080°15'0 0.0
2018-Jun-01 04:56N 25°48' W 080°15'0 0.0
2018-Jun-01 04:23N 25°48' W 080°15'0 0.0
2018-Jun-01 03:59N 25°48' W 080°15'0 0.0
2018-Jun-01 03:29N 25°48' W 080°15'0 0.0
2018-Jun-01 02:59N 25°48' W 080°15'0 0.0
2018-Jun-01 02:29N 25°48' W 080°15'0 0.0
2018-Jun-01 01:59N 25°48' W 080°15'0 0.0
2018-Jun-01 01:29N 25°48' W 080°15'0 0.0
2018-Jun-01 00:59N 25°48' W 080°15'0 0.0
2018-Jun-01 00:29N 25°48' W 080°15'0 0.0
2018-May-31 23:59N 25°48' W 080°15'0 0.0
2018-May-31 23:26N 25°48' W 080°15'0 0.0
2018-May-31 22:59N 25°48' W 080°15'0 0.0
2018-May-31 22:20N 25°48' W 080°15'0 0.0
2018-May-31 21:59N 25°48' W 080°15'0 0.0
2018-May-31 21:29N 25°48' W 080°15'0 0.0
2018-May-31 20:59N 25°48' W 080°15'0 0.0
2018-May-31 20:29N 25°48' W 080°15'0 0.0
2018-May-31 19:53N 25°48' W 080°15'0 0.0
2018-May-31 19:23N 25°48' W 080°15'0 0.0
2018-May-31 18:56N 25°48' W 080°15'0 0.0
2018-May-31 18:23N 25°48' W 080°15'0 0.0
2018-May-31 17:56N 25°48' W 080°15'0 0.0
2018-May-31 17:23N 25°48' W 080°15'0 0.0
2018-May-31 16:53N 25°48' W 080°15'0 0.0
2018-May-31 16:28N 25°48' W 080°15'0 0.0
2018-May-31 15:58N 25°48' W 080°15'0 0.0
2018-May-31 15:25N 25°48' W 080°15'0 0.0
2018-May-31 14:55N 25°48' W 080°15'0 0.0
2018-May-31 14:28N 25°48' W 080°15'0 0.0
2018-May-31 13:55N 25°48' W 080°15'0 0.0
2018-May-31 13:28N 25°48' W 080°15'0 0.0
2018-May-31 12:58N 25°48' W 080°15'0 0.0
2018-May-31 12:28N 25°48' W 080°15'0 0.0
2018-May-31 11:55N 25°48' W 080°15'0 0.0
2018-May-31 11:25N 25°48' W 080°15'0 0.0
2018-May-31 10:58N 25°48' W 080°15'0 0.0
2018-May-31 10:28N 25°48' W 080°15'0 0.0
2018-May-31 09:58N 25°48' W 080°15'0 0.0
2018-May-31 09:28N 25°48' W 080°15'0 0.0
2018-May-31 08:58N 25°48' W 080°15'0 0.0
2018-May-31 08:28N 25°48' W 080°15'0 0.0
2018-May-31 07:58N 25°48' W 080°15'0 0.0
2018-May-31 07:28N 25°48' W 080°15'0 0.0
2018-May-31 06:58N 25°48' W 080°15'0 0.0
2018-May-31 06:28N 25°48' W 080°15'0 0.0
2018-May-31 05:58N 25°48' W 080°15'0 0.0
2018-May-31 05:22N 25°48' W 080°15'0 0.0
2018-May-31 04:58N 25°48' W 080°15'0 0.0
2018-May-31 04:28N 25°48' W 080°15'0 0.0
2018-May-31 03:52N 25°48' W 080°15'0 0.0
2018-May-31 03:28N 25°48' W 080°15'  

Dump ship's entire track history